createdAt,value
2022-10-12T00:01:33.000Z,100942.22
2022-10-12T00:03:59.951Z,100937.03
2022-10-12T00:06:26.601Z,100946.53
2022-10-12T00:08:54.533Z,100941.72
2022-10-12T00:11:27.307Z,100944.53
2022-10-12T00:13:54.888Z,100959.19
2022-10-12T00:16:23.441Z,100959.66
2022-10-12T00:18:55.439Z,100951.53
2022-10-12T00:21:24.038Z,100937.50
2022-10-12T00:23:51.449Z,100944.00
2022-10-12T00:26:21.545Z,100960.81
2022-10-12T00:28:49.506Z,100967.31
2022-10-12T00:31:19.060Z,100961.47
2022-10-12T00:33:46.607Z,100952.47
2022-10-12T00:36:19.882Z,100960.28
2022-10-12T00:38:46.847Z,100966.47
2022-10-12T00:41:15.107Z,100957.81
2022-10-12T00:43:43.292Z,100966.63
2022-10-12T00:46:42.564Z,100971.12
2022-10-12T00:49:15.228Z,100979.44
2022-10-12T00:51:44.292Z,100969.25
2022-10-12T00:54:16.415Z,100971.44
2022-10-12T00:56:45.527Z,100963.41
2022-10-12T00:59:20.694Z,100972.41
2022-10-12T01:01:47.581Z,100970.22
2022-10-12T01:04:14.701Z,100957.19
2022-10-12T01:06:41.413Z,100967.53
2022-10-12T01:09:08.018Z,100969.34
2022-10-12T01:11:34.902Z,100961.84
2022-10-12T01:14:01.798Z,100953.97
2022-10-12T01:16:41.034Z,100955.97
2022-10-12T01:19:29.997Z,100973.31
2022-10-12T01:22:05.851Z,100974.59
2022-10-12T01:24:54.499Z,100965.06
2022-10-12T01:27:32.774Z,100981.50
2022-10-12T01:30:13.253Z,100982.81
2022-10-12T01:32:49.657Z,100986.81
2022-10-12T01:35:25.735Z,100987.78
2022-10-12T01:37:55.165Z,100994.25
2022-10-12T01:40:37.262Z,100989.25
2022-10-12T01:43:04.475Z,100994.38
2022-10-12T01:45:31.779Z,101002.34
2022-10-12T01:47:58.733Z,100992.03
2022-10-12T01:50:37.194Z,100992.50
2022-10-12T01:53:04.047Z,100994.47
2022-10-12T01:55:40.645Z,100991.28
2022-10-12T01:58:20.171Z,100986.06
2022-10-12T02:00:53.610Z,100995.72
2022-10-12T02:03:44.031Z,100990.34
2022-10-12T02:06:16.125Z,101005.84
2022-10-12T02:08:47.658Z,101007.13
2022-10-12T02:11:17.688Z,101006.47
2022-10-12T02:13:48.798Z,101012.09
2022-10-12T02:16:19.926Z,101002.66
2022-10-12T02:18:54.566Z,101007.31
2022-10-12T02:21:25.768Z,101019.31
2022-10-12T02:23:56.638Z,101023.09
2022-10-12T02:26:23.957Z,101024.53
2022-10-12T02:28:50.984Z,100994.78
2022-10-12T02:31:20.369Z,101020.69
2022-10-12T02:33:57.820Z,101028.81
2022-10-12T02:36:34.337Z,101021.88
2022-10-12T02:39:13.496Z,101026.22
2022-10-12T02:41:47.546Z,101029.53
2022-10-12T02:44:19.686Z,101019.00
2022-10-12T02:46:48.409Z,101043.28
2022-10-12T02:49:17.454Z,101031.97
2022-10-12T02:51:45.193Z,101035.75
2022-10-12T02:54:12.637Z,101039.44
2022-10-12T02:56:44.891Z,101042.22
2022-10-12T02:59:12.181Z,101047.84
2022-10-12T03:01:39.621Z,101047.16
2022-10-12T03:04:06.590Z,101047.44
2022-10-12T03:06:33.291Z,101048.56
2022-10-12T03:09:00.246Z,101042.50
2022-10-12T03:11:26.936Z,101053.66
2022-10-12T03:13:56.671Z,101059.94
2022-10-12T03:16:24.775Z,101050.22
2022-10-12T03:18:52.324Z,101067.37
2022-10-12T03:21:18.947Z,101069.22
2022-10-12T03:23:45.914Z,101066.56
2022-10-12T03:26:12.554Z,101045.19
2022-10-12T03:28:39.293Z,101058.59
2022-10-12T03:31:06.528Z,101050.37
2022-10-12T03:33:33.122Z,101052.44
2022-10-12T03:35:59.821Z,101066.56
2022-10-12T03:38:26.785Z,101067.37
2022-10-12T03:40:53.502Z,101068.19
2022-10-12T03:43:20.194Z,101061.53
2022-10-12T03:45:47.437Z,101050.66
2022-10-12T03:48:14.103Z,101067.00
2022-10-12T03:50:40.802Z,101067.13
2022-10-12T03:53:07.841Z,101065.47
2022-10-12T03:55:34.498Z,101067.41
2022-10-12T03:58:01.230Z,101064.91
2022-10-12T04:00:28.553Z,101071.37
2022-10-12T04:02:55.655Z,101059.12
2022-10-12T04:05:22.731Z,101054.78
2022-10-12T04:07:49.762Z,101079.22
2022-10-12T04:10:16.827Z,101074.19
2022-10-12T04:12:43.478Z,101073.53
2022-10-12T04:15:10.581Z,101073.41
2022-10-12T04:17:38.172Z,101092.41
2022-10-12T04:20:05.947Z,101084.72
2022-10-12T04:22:32.646Z,101095.50
2022-10-12T04:24:59.531Z,101097.44
2022-10-12T04:27:26.145Z,101088.78
2022-10-12T04:29:53.007Z,101089.75
2022-10-12T04:32:19.922Z,101099.56
2022-10-12T04:34:46.525Z,101101.37
2022-10-12T04:37:13.289Z,101102.22
2022-10-12T04:39:40.126Z,101095.78
2022-10-12T04:42:09.411Z,101116.16
2022-10-12T04:44:36.239Z,101101.37
2022-10-12T04:47:03.318Z,101113.22
2022-10-12T04:49:29.960Z,101103.88
2022-10-12T04:51:56.646Z,101102.22
2022-10-12T04:54:23.505Z,101101.22
2022-10-12T04:56:50.162Z,101115.28
2022-10-12T04:59:16.880Z,101114.44
2022-10-12T05:01:43.904Z,101120.31
2022-10-12T05:04:10.644Z,101124.47
2022-10-12T05:06:37.366Z,101112.63
2022-10-12T05:09:04.376Z,101126.03
2022-10-12T05:11:31.239Z,101126.16
2022-10-12T05:13:58.148Z,101137.16
2022-10-12T05:16:25.123Z,101135.53
2022-10-12T05:18:51.930Z,101125.34
2022-10-12T05:21:18.574Z,101132.00
2022-10-12T05:23:49.685Z,101143.56
2022-10-12T05:26:16.350Z,101136.72
2022-10-12T05:28:43.081Z,101142.84
2022-10-12T05:31:09.946Z,101130.97
2022-10-12T05:33:36.697Z,101124.16
2022-10-12T05:36:03.623Z,101136.56
2022-10-12T05:38:30.527Z,101153.44
2022-10-12T05:41:00.554Z,101153.16
2022-10-12T05:43:28.162Z,101149.25
2022-10-12T05:45:55.078Z,101137.25
2022-10-12T05:48:21.938Z,101161.75
2022-10-12T05:50:48.717Z,101165.63
2022-10-12T05:53:15.715Z,101167.00
2022-10-12T05:55:52.236Z,101158.34
2022-10-12T05:58:19.184Z,101177.31
2022-10-12T06:00:45.834Z,101171.97
2022-10-12T06:03:13.148Z,101185.87
2022-10-12T06:05:41.786Z,101170.94
2022-10-12T06:08:09.111Z,101175.81
2022-10-12T06:10:37.711Z,101192.22
2022-10-12T06:13:04.343Z,101202.94
2022-10-12T06:15:31.450Z,101197.16
2022-10-12T06:17:58.322Z,101207.34
2022-10-12T06:20:24.969Z,101205.38
2022-10-12T06:22:51.617Z,101206.37
2022-10-12T06:25:18.479Z,101216.69
2022-10-12T06:27:46.128Z,101215.00
2022-10-12T06:30:13.906Z,101218.69
2022-10-12T06:32:41.050Z,101203.59
2022-10-12T06:35:08.424Z,101204.47
2022-10-12T06:37:49.635Z,101219.50
2022-10-12T06:40:18.620Z,101215.88
2022-10-12T06:43:12.099Z,101215.88
2022-10-12T06:45:39.089Z,101221.34
2022-10-12T06:48:05.828Z,101230.81
2022-10-12T06:50:32.478Z,101212.13
2022-10-12T06:52:59.492Z,101228.00
2022-10-12T06:55:26.364Z,101232.03
2022-10-12T06:57:53.146Z,101229.25
2022-10-12T07:00:20.149Z,101235.06
2022-10-12T07:02:50.316Z,101236.59
2022-10-12T07:05:17.293Z,101241.78
2022-10-12T07:07:44.235Z,101227.19
2022-10-12T07:10:11.531Z,101226.81
2022-10-12T07:12:39.421Z,101230.00
2022-10-12T07:15:07.691Z,101234.41
2022-10-12T07:17:34.645Z,101231.44
2022-10-12T07:20:01.349Z,101226.28
2022-10-12T07:22:28.344Z,101239.53
2022-10-12T07:24:55.112Z,101244.41
2022-10-12T07:27:21.809Z,101235.09
2022-10-12T07:29:48.688Z,101247.13
2022-10-12T07:32:15.431Z,101243.84
2022-10-12T07:34:44.727Z,101243.37
2022-10-12T07:37:11.944Z,101221.56
2022-10-12T07:39:41.267Z,101231.97
2022-10-12T07:42:08.283Z,101241.00
2022-10-12T07:44:35.748Z,101241.22
2022-10-12T07:47:02.469Z,101239.25
2022-10-12T07:49:29.542Z,101233.75
2022-10-12T07:51:56.415Z,101242.31
2022-10-12T07:54:28.977Z,101241.53
2022-10-12T07:56:56.865Z,101239.59
2022-10-12T07:59:24.208Z,101243.28
2022-10-12T08:01:50.868Z,101238.69
2022-10-12T08:04:17.920Z,101241.41
2022-10-12T08:06:44.697Z,101235.09
2022-10-12T08:09:11.382Z,101236.13
2022-10-12T08:11:42.136Z,101239.63
2022-10-12T08:14:16.172Z,101248.84
2022-10-12T08:16:44.650Z,101248.38
2022-10-12T08:19:11.692Z,101234.88
2022-10-12T08:21:38.481Z,101234.94
2022-10-12T08:24:05.838Z,101237.09
2022-10-12T08:26:33.257Z,101247.34
2022-10-12T08:29:01.989Z,101247.31
2022-10-12T08:31:29.002Z,101248.66
2022-10-12T08:33:57.764Z,101242.47
2022-10-12T08:36:24.859Z,101243.00
2022-10-12T08:38:54.127Z,101234.66
2022-10-12T08:42:03.592Z,101236.97
2022-10-12T08:44:48.263Z,101242.47
2022-10-12T08:47:33.891Z,101246.31
2022-10-12T08:50:04.850Z,101239.63
2022-10-12T08:52:44.037Z,101232.78
2022-10-12T08:55:34.444Z,101238.41
2022-10-12T08:58:02.414Z,101232.91
2022-10-12T09:03:19.487Z,101226.44
2022-10-12T09:05:54.340Z,101237.75
2022-10-12T09:08:57.822Z,101223.06
2022-10-12T09:11:46.920Z,101235.38
2022-10-12T09:14:25.013Z,101239.19
2022-10-12T09:16:55.370Z,101240.34
2022-10-12T12:26:55.001Z,101191.41
2022-10-12T12:29:29.854Z,101191.41
2022-10-12T12:31:59.164Z,101208.41
2022-10-12T12:34:28.020Z,101206.75
2022-10-12T12:36:55.227Z,101226.31
2022-10-12T12:39:25.836Z,101222.25
2022-10-12T12:42:01.367Z,101220.22
2022-10-12T12:44:37.897Z,101216.37
2022-10-12T12:47:26.081Z,101223.50
2022-10-12T12:49:57.441Z,101192.97
2022-10-12T12:52:24.320Z,101218.44
2022-10-12T12:55:15.959Z,101207.69
2022-10-12T12:57:55.781Z,101212.03
2022-10-12T13:00:23.902Z,101220.91
2022-10-12T13:03:23.797Z,101212.69
2022-10-12T13:06:28.003Z,101201.97
2022-10-12T13:09:05.250Z,101210.00
2022-10-12T13:11:52.340Z,101205.00
2022-10-12T13:14:34.226Z,101206.37
2022-10-12T13:19:55.554Z,101176.31
2022-10-12T13:22:32.757Z,101201.19
2022-10-12T13:25:04.471Z,101211.16
2022-10-12T13:27:46.667Z,101212.53
2022-10-12T13:30:23.671Z,101198.25
2022-10-12T13:32:58.456Z,101210.72
2022-10-12T13:35:58.863Z,101200.91
2022-10-12T13:38:27.799Z,101203.69
2022-10-12T13:41:04.003Z,101198.25
2022-10-12T13:43:40.432Z,101197.38
2022-10-12T13:46:07.532Z,101216.06
2022-10-12T13:48:58.302Z,101191.19
2022-10-12T13:51:24.975Z,101207.00
2022-10-12T13:53:51.631Z,101213.22
2022-10-12T13:56:20.867Z,101208.50
2022-10-12T13:58:48.186Z,101213.84
2022-10-12T14:01:14.816Z,101211.53
2022-10-12T14:03:44.631Z,101194.16
2022-10-12T14:06:31.083Z,101195.75
2022-10-12T14:09:06.586Z,101208.59
2022-10-12T14:11:34.598Z,101209.34
2022-10-12T14:14:02.493Z,101210.03
2022-10-12T14:16:29.328Z,101220.13
2022-10-12T14:18:56.053Z,101207.09
2022-10-12T14:21:33.318Z,101203.28
2022-10-12T14:24:09.311Z,101196.06
2022-10-12T14:26:42.088Z,101203.94
2022-10-12T14:29:33.600Z,101212.31
2022-10-12T14:32:03.516Z,101213.69
2022-10-12T14:34:36.865Z,101214.06
2022-10-12T14:37:05.883Z,101209.06
2022-10-12T14:39:33.440Z,101199.44
2022-10-12T14:42:27.698Z,101209.44
2022-10-12T14:44:55.310Z,101212.28
2022-10-12T14:47:25.168Z,101207.16
2022-10-12T14:49:54.318Z,101219.84
2022-10-12T14:52:23.333Z,101217.69
2022-10-12T14:57:24.507Z,101230.34
2022-10-12T14:59:51.356Z,101223.66
2022-10-12T15:02:23.308Z,101217.34
2022-10-12T15:04:50.713Z,101233.41
2022-10-12T15:07:27.717Z,101219.75
2022-10-12T15:09:54.667Z,101214.16
2022-10-12T15:12:23.406Z,101232.53
2022-10-12T15:14:56.070Z,101229.87
2022-10-12T15:17:23.095Z,101238.28
2022-10-12T15:19:51.736Z,101220.91
2022-10-12T15:22:26.784Z,101229.47
2022-10-12T15:24:54.673Z,101247.84
2022-10-12T15:27:21.907Z,101229.72
2022-10-12T15:29:48.773Z,101240.87
2022-10-12T15:32:18.358Z,101235.41
2022-10-12T15:34:45.662Z,101226.06
2022-10-12T15:37:12.486Z,101234.78
2022-10-12T15:39:39.593Z,101247.81
2022-10-12T15:42:06.215Z,101228.84
2022-10-12T15:44:39.794Z,101235.66
2022-10-12T15:47:06.970Z,101248.22
2022-10-12T15:49:33.639Z,101237.72
2022-10-12T15:52:00.398Z,101243.56
2022-10-12T15:54:27.397Z,101243.06
2022-10-12T15:56:54.616Z,101239.09
2022-10-12T15:59:21.706Z,101258.47
2022-10-12T16:01:48.780Z,101237.13
2022-10-12T16:04:21.486Z,101251.63
2022-10-12T16:06:48.176Z,101261.84
2022-10-12T16:09:15.109Z,101256.00
2022-10-12T16:11:41.806Z,101256.31
2022-10-12T16:14:12.577Z,101265.34
2022-10-12T16:16:39.575Z,101253.34
2022-10-12T16:19:06.654Z,101255.16
2022-10-12T16:21:33.379Z,101263.50
2022-10-12T16:24:00.315Z,101261.84
2022-10-12T16:26:27.346Z,101237.81
2022-10-12T16:28:54.211Z,101254.84
2022-10-12T16:31:21.296Z,101260.34
2022-10-12T16:33:47.961Z,101266.50
2022-10-12T16:36:16.476Z,101274.34
2022-10-12T16:38:44.027Z,101284.37
2022-10-12T16:41:16.091Z,101258.34
2022-10-12T16:43:43.812Z,101280.72
2022-10-12T16:46:10.902Z,101279.03
2022-10-12T16:48:37.633Z,101283.56
2022-10-12T16:51:09.112Z,101265.72
2022-10-12T16:53:35.905Z,101286.41
2022-10-12T16:56:03.081Z,101279.38
2022-10-12T16:58:30.068Z,101271.34
2022-10-12T17:00:56.871Z,101273.56
2022-10-12T17:03:24.948Z,101278.22
2022-10-12T17:05:59.570Z,101268.53
2022-10-12T17:08:26.428Z,101280.38
2022-10-12T17:10:53.509Z,101272.53
2022-10-12T17:13:20.178Z,101273.87
2022-10-12T17:15:46.987Z,101282.22
2022-10-12T17:18:14.003Z,101282.53
2022-10-12T17:20:40.696Z,101279.56
2022-10-12T17:23:07.333Z,101284.37
2022-10-12T17:25:34.360Z,101288.34
2022-10-12T17:28:01.051Z,101281.69
2022-10-12T17:30:27.756Z,101270.50
2022-10-12T17:32:54.730Z,101278.50
2022-10-12T17:35:21.441Z,101287.47
2022-10-12T17:37:48.167Z,101283.78
2022-10-12T17:40:15.611Z,101272.78
2022-10-12T17:42:42.277Z,101261.72
2022-10-12T17:45:09.446Z,101281.75
2022-10-12T17:47:36.532Z,101282.25
2022-10-12T17:50:03.474Z,101288.72
2022-10-12T17:52:30.132Z,101274.19
2022-10-12T17:54:57.161Z,101269.84
2022-10-12T17:57:23.831Z,101284.53
2022-10-12T17:59:50.459Z,101286.38
2022-10-12T18:02:17.433Z,101274.13
2022-10-12T18:04:44.393Z,101282.13
2022-10-12T18:07:11.113Z,101282.47
2022-10-12T18:09:37.885Z,101297.97
2022-10-12T18:12:05.365Z,101281.81
2022-10-12T18:14:32.099Z,101298.47
2022-10-12T18:16:58.897Z,101292.47
2022-10-12T18:19:25.891Z,101293.09
2022-10-12T18:21:52.604Z,101303.09
2022-10-12T18:24:20.715Z,101301.59
2022-10-12T18:26:48.055Z,101302.88
2022-10-12T18:29:16.434Z,101303.38
2022-10-12T18:31:43.182Z,101317.00
2022-10-12T18:34:10.413Z,101320.00
2022-10-12T18:36:37.545Z,101321.13
2022-10-12T18:39:04.428Z,101311.81
2022-10-12T18:41:31.559Z,101295.88
2022-10-12T18:43:59.948Z,101321.25
2022-10-12T18:46:28.695Z,101324.06
2022-10-12T18:48:56.201Z,101327.22
2022-10-12T18:51:26.850Z,101320.34
2022-10-12T18:53:54.529Z,101330.34
2022-10-12T18:56:21.903Z,101325.00
2022-10-12T18:58:48.774Z,101313.81
2022-10-12T19:01:18.186Z,101311.78
2022-10-12T19:03:45.879Z,101330.81
2022-10-12T19:06:18.204Z,101329.13
2022-10-12T19:08:45.574Z,101338.81
2022-10-12T19:11:12.778Z,101320.38
2022-10-12T19:13:40.874Z,101336.75
2022-10-12T19:16:10.498Z,101342.37
2022-10-12T19:18:37.880Z,101347.03
2022-10-12T19:21:06.664Z,101328.66
2022-10-12T19:23:34.111Z,101344.16
2022-10-12T19:26:06.505Z,101343.59
2022-10-12T19:28:34.247Z,101344.94
2022-10-12T19:31:02.186Z,101343.56
2022-10-12T19:33:29.281Z,101329.31
2022-10-12T19:35:56.302Z,101344.84
2022-10-12T19:38:23.066Z,101339.66
2022-10-12T19:40:51.986Z,101338.59
2022-10-12T19:43:18.926Z,101354.25
2022-10-12T19:45:45.666Z,101334.19
2022-10-12T19:48:12.424Z,101336.03
2022-10-12T19:50:39.750Z,101349.72
2022-10-12T19:53:06.788Z,101336.78
2022-10-12T19:55:34.071Z,101349.34
2022-10-12T19:58:01.656Z,101331.22
2022-10-12T20:00:28.700Z,101354.41
2022-10-12T20:02:55.764Z,101336.31
2022-10-12T20:05:22.531Z,101352.19
2022-10-12T20:07:49.310Z,101348.19
2022-10-12T20:10:16.341Z,101351.97
2022-10-12T20:12:43.044Z,101356.63
2022-10-12T20:15:10.657Z,101357.91
2022-10-12T20:17:38.800Z,101339.44
2022-10-12T20:20:07.040Z,101355.66
2022-10-12T20:22:33.845Z,101354.28
2022-10-12T20:25:00.999Z,101343.25
2022-10-12T20:27:28.645Z,101354.44
2022-10-12T20:29:55.313Z,101352.22
2022-10-12T20:32:22.223Z,101338.13
2022-10-12T20:34:52.455Z,101343.97
2022-10-12T20:37:20.702Z,101357.00
2022-10-12T20:39:49.813Z,101343.16
2022-10-12T20:42:20.676Z,101355.63
2022-10-12T20:44:48.847Z,101356.44
2022-10-12T20:47:15.582Z,101360.25
2022-10-12T20:49:42.379Z,101349.91
2022-10-12T20:52:10.449Z,101353.56
2022-10-12T20:54:37.408Z,101365.19
2022-10-12T20:57:04.880Z,101366.16
2022-10-12T20:59:34.520Z,101364.66
2022-10-12T21:02:01.217Z,101360.44
2022-10-12T21:04:30.520Z,101362.28
2022-10-12T21:06:59.628Z,101351.38
2022-10-12T21:09:26.265Z,101355.87
2022-10-12T21:11:54.041Z,101357.94
2022-10-12T21:14:21.333Z,101365.25
2022-10-12T21:16:48.094Z,101347.47
2022-10-12T21:19:15.827Z,101366.22
2022-10-12T21:21:42.982Z,101365.37
2022-10-12T21:24:10.622Z,101363.69
2022-10-12T21:26:37.442Z,101370.13
2022-10-12T21:29:05.188Z,101364.12
2022-10-12T21:31:33.001Z,101352.03
2022-10-12T21:34:05.542Z,101364.03
2022-10-12T21:36:36.241Z,101360.44
2022-10-12T21:39:14.705Z,101373.81
2022-10-12T21:41:42.789Z,101372.13
2022-10-12T21:44:10.669Z,101369.63
2022-10-12T21:46:37.604Z,101357.94
2022-10-12T21:49:07.923Z,101363.47
2022-10-12T21:51:36.651Z,101374.66
2022-10-12T21:54:06.405Z,101368.22
2022-10-12T21:56:35.730Z,101373.53
2022-10-12T21:59:04.437Z,101370.03
2022-10-12T22:01:36.830Z,101369.03
2022-10-12T22:04:06.758Z,101373.53
2022-10-12T22:06:34.414Z,101366.53
2022-10-12T22:09:05.454Z,101365.59
2022-10-12T22:11:33.786Z,101362.94
2022-10-12T22:14:03.612Z,101374.66
2022-10-12T22:16:30.618Z,101364.59
2022-10-12T22:19:02.748Z,101362.81
2022-10-12T22:21:32.412Z,101377.72
2022-10-12T22:24:00.504Z,101371.25
2022-10-12T22:26:27.722Z,101367.78
2022-10-12T22:28:55.289Z,101371.97
2022-10-12T22:31:24.679Z,101377.44
2022-10-12T22:33:52.529Z,101372.94
2022-10-12T22:36:19.332Z,101380.09
2022-10-12T22:38:46.517Z,101374.94
2022-10-12T22:41:18.646Z,101372.41
2022-10-12T22:43:46.737Z,101366.00
2022-10-12T22:46:13.707Z,101376.34
2022-10-12T22:48:40.344Z,101369.47
2022-10-12T22:51:11.779Z,101367.97
2022-10-12T22:53:38.445Z,101373.59
2022-10-12T22:56:13.539Z,101356.81
2022-10-12T22:58:40.662Z,101378.47
2022-10-12T23:01:10.854Z,101352.09
2022-10-12T23:03:38.094Z,101371.09
2022-10-12T23:06:07.378Z,101374.72
2022-10-12T23:08:34.168Z,101381.72
2022-10-12T23:11:10.406Z,101363.53
2022-10-12T23:13:38.530Z,101385.19
2022-10-12T23:16:08.098Z,101369.59
2022-10-12T23:18:35.639Z,101386.34
2022-10-12T23:21:09.167Z,101395.28
2022-10-12T23:23:37.645Z,101386.94
2022-10-12T23:26:07.957Z,101368.34
2022-10-12T23:28:35.114Z,101389.87
2022-10-12T23:31:10.286Z,101391.81
2022-10-12T23:33:37.423Z,101384.69
2022-10-12T23:36:08.115Z,101388.47
2022-10-12T23:38:37.249Z,101380.06
2022-10-12T23:41:04.903Z,101372.53
2022-10-12T23:43:32.065Z,101371.03
2022-10-12T23:46:01.257Z,101396.03
2022-10-12T23:48:28.645Z,101372.28
2022-10-12T23:50:55.920Z,101392.69
2022-10-12T23:53:24.219Z,101398.00
2022-10-12T23:55:52.042Z,101386.53
2022-10-12T23:58:19.081Z,101383.88
